createdAt,value
2018-11-13T00:00:43.676Z,92.46
2018-11-13T00:01:43.673Z,92.46
2018-11-13T00:02:43.675Z,92.46
2018-11-13T00:03:43.428Z,91.7
2018-11-13T00:04:43.679Z,92.18
2018-11-13T00:05:43.731Z,91.79
2018-11-13T00:06:43.699Z,91.7
2018-11-13T00:07:43.742Z,91.79
2018-11-13T00:08:43.689Z,91.79
2018-11-13T00:09:43.693Z,92.46
2018-11-13T00:10:43.704Z,92.36
2018-11-13T00:11:43.707Z,92.55
2018-11-13T00:12:43.755Z,92.55
2018-11-13T00:13:43.707Z,92.27
2018-11-13T00:14:43.708Z,92.27
2018-11-13T00:15:43.460Z,92.27
2018-11-13T00:16:43.713Z,91.99
2018-11-13T00:17:43.480Z,92.08
2018-11-13T00:18:43.746Z,92.08
2018-11-13T00:19:43.727Z,91.89
2018-11-13T00:20:43.729Z,91.99
2018-11-13T00:21:43.728Z,91.89
2018-11-13T00:22:43.739Z,91.99
2018-11-13T00:23:43.468Z,91.79
2018-11-13T00:24:43.720Z,91.7
2018-11-13T00:25:43.723Z,91.7
2018-11-13T00:26:43.748Z,91.99
2018-11-13T00:27:44.174Z,91.89
2018-11-13T00:28:43.734Z,91.99
2018-11-13T00:29:43.737Z,91.7
2018-11-13T00:30:43.487Z,91.6
2018-11-13T00:31:43.750Z,91.89
2018-11-13T00:32:43.601Z,91.51
2018-11-13T00:33:43.756Z,91.41
2018-11-13T00:34:43.754Z,92.18
2018-11-13T00:35:43.496Z,92.27
2018-11-13T00:36:43.749Z,92.27
2018-11-13T00:37:43.802Z,92.36
2018-11-13T00:38:43.751Z,92.55
2018-11-13T00:39:43.760Z,91.7
2018-11-13T00:40:43.758Z,91.7
2018-11-13T00:41:43.759Z,91.51
2018-11-13T00:42:43.763Z,91.7
2018-11-13T00:43:43.518Z,91.89
2018-11-13T00:44:43.766Z,92.18
2018-11-13T00:45:44.323Z,91.89
2018-11-13T00:46:43.793Z,91.6
2018-11-13T00:47:43.784Z,91.7
2018-11-13T00:48:43.533Z,91.7
2018-11-13T00:49:43.798Z,91.6
2018-11-13T00:50:44.126Z,92.27
2018-11-13T00:51:43.791Z,92.18
2018-11-13T00:52:43.847Z,91.65
2018-11-13T00:53:43.542Z,91.56
2018-11-13T00:54:43.858Z,92.36
2018-11-13T00:55:43.802Z,92.22
2018-11-13T00:56:43.804Z,92.36
2018-11-13T00:57:44.102Z,92.22
2018-11-13T00:58:43.806Z,92.46
2018-11-13T00:59:43.808Z,92.41
2018-11-13T01:00:43.911Z,92.13
2018-11-13T01:01:43.605Z,92.51
2018-11-13T01:02:43.822Z,92.27
2018-11-13T01:03:43.821Z,91.6
2018-11-13T01:04:43.816Z,91.84
2018-11-13T01:05:43.630Z,91.84
2018-11-13T01:06:43.567Z,91.65
2018-11-13T01:07:44.090Z,91.7
2018-11-13T01:08:43.834Z,91.84
2018-11-13T01:09:43.831Z,91.65
2018-11-13T01:10:43.830Z,91.7
2018-11-13T01:11:43.949Z,91.84
2018-11-13T01:12:43.838Z,91.94
2018-11-13T01:13:43.836Z,91.56
2018-11-13T01:14:43.585Z,91.94
2018-11-13T01:15:43.839Z,91.46
2018-11-13T01:16:43.591Z,92.22
2018-11-13T01:17:43.858Z,92.51
2018-11-13T01:18:43.596Z,92.13
2018-11-13T01:19:43.856Z,92.41
2018-11-13T01:20:43.851Z,92.32
2018-11-13T01:21:43.855Z,92.22
2018-11-13T01:22:43.908Z,92.22
2018-11-13T01:23:43.901Z,91.75
2018-11-13T01:24:43.609Z,92.41
2018-11-13T01:25:43.863Z,92.41
2018-11-13T01:26:43.885Z,92.32
2018-11-13T01:27:43.873Z,92.22
2018-11-13T01:28:43.869Z,92.22
2018-11-13T01:29:43.874Z,92.6
2018-11-13T01:30:43.879Z,92.22
2018-11-13T01:31:43.878Z,92.13
2018-11-13T01:32:43.888Z,92.32
2018-11-13T01:33:43.617Z,92.22
2018-11-13T01:34:43.876Z,92.41
2018-11-13T01:35:43.873Z,92.7
2018-11-13T01:36:43.876Z,92.51
2018-11-13T01:37:43.729Z,93.18
2018-11-13T01:38:43.884Z,92.89
2018-11-13T01:39:43.892Z,92.7
2018-11-13T01:40:43.637Z,92.89
2018-11-13T01:41:44.047Z,92.89
2018-11-13T01:42:43.942Z,92.79
2018-11-13T01:43:43.891Z,92.79
2018-11-13T01:44:43.889Z,92.79
2018-11-13T01:45:43.894Z,93.37
2018-11-13T01:46:43.897Z,92.89
2018-11-13T01:47:43.907Z,92.99
2018-11-13T01:48:43.900Z,93.37
2018-11-13T01:49:43.653Z,92.99
2018-11-13T01:50:43.904Z,93.08
2018-11-13T01:51:43.902Z,93.37
2018-11-13T01:52:43.914Z,93.18
2018-11-13T01:53:43.907Z,93.08
2018-11-13T01:54:43.915Z,93.55
2018-11-13T01:55:43.911Z,93.27
2018-11-13T01:56:43.918Z,93.27
2018-11-13T01:57:43.975Z,93.08
2018-11-13T01:58:43.923Z,92.99
2018-11-13T01:59:43.924Z,92.89
2018-11-13T02:00:43.932Z,92.99
2018-11-13T02:01:43.928Z,92.89
2018-11-13T02:02:43.936Z,93.27
2018-11-13T02:03:43.930Z,93.27
2018-11-13T02:04:43.934Z,92.79
2018-11-13T02:05:43.936Z,92.7
2018-11-13T02:06:43.941Z,92.41
2018-11-13T02:07:43.945Z,92.79
2018-11-13T02:08:43.681Z,92.79
2018-11-13T02:09:43.932Z,92.51
2018-11-13T02:10:43.695Z,92.41
2018-11-13T02:11:43.946Z,92.6
2018-11-13T02:12:44.045Z,92.7
2018-11-13T02:13:43.949Z,92.7
2018-11-13T02:14:43.951Z,92.79
2018-11-13T02:15:43.954Z,92.51
2018-11-13T02:16:43.954Z,92.7
2018-11-13T02:17:43.961Z,92.32
2018-11-13T02:18:43.956Z,92.32
2018-11-13T02:19:43.962Z,92.51
2018-11-13T02:20:43.704Z,92.7
2018-11-13T02:21:43.961Z,92.79
2018-11-13T02:22:43.959Z,92.6
2018-11-13T02:23:43.957Z,92.6
2018-11-13T02:24:43.968Z,92.79
2018-11-13T02:25:43.971Z,92.41
2018-11-13T02:26:43.975Z,92.79
2018-11-13T02:27:43.771Z,92.51
2018-11-13T02:28:43.980Z,92.32
2018-11-13T02:29:43.977Z,92.32
2018-11-13T02:30:43.743Z,92.41
2018-11-13T02:31:43.983Z,92.6
2018-11-13T02:32:44.038Z,92.41
2018-11-13T02:33:43.735Z,92.41
2018-11-13T02:34:43.997Z,92.22
2018-11-13T02:35:44.155Z,92.32
2018-11-13T02:36:43.741Z,92.41
2018-11-13T02:37:43.997Z,92.22
2018-11-13T02:38:43.744Z,91.94
2018-11-13T02:39:43.745Z,92.22
2018-11-13T02:40:43.997Z,92.41
2018-11-13T02:41:44.005Z,92.08
2018-11-13T02:42:44.015Z,92.22
2018-11-13T02:43:44.006Z,92.46
2018-11-13T02:44:44.004Z,92.41
2018-11-13T02:45:44.010Z,91.89
2018-11-13T02:46:44.007Z,92.36
2018-11-13T02:47:44.062Z,92.18
2018-11-13T02:48:44.015Z,92.65
2018-11-13T02:49:44.015Z,92.84
2018-11-13T02:50:44.033Z,92.89
2018-11-13T02:51:43.765Z,92.56
2018-11-13T02:52:44.015Z,92.65
2018-11-13T02:53:44.020Z,93.23
2018-11-13T02:54:44.028Z,92.75
2018-11-13T02:55:43.773Z,93.51
2018-11-13T02:56:44.032Z,93.04
2018-11-13T02:57:44.031Z,92.65
2018-11-13T02:58:44.027Z,93.23
2018-11-13T02:59:44.048Z,93.04
2018-11-13T03:00:44.033Z,92.94
2018-11-13T03:01:44.036Z,92.94
2018-11-13T03:02:44.087Z,93.13
2018-11-13T03:03:44.036Z,92.84
2018-11-13T03:04:44.036Z,93.13
2018-11-13T03:05:44.039Z,93.51
2018-11-13T03:06:44.031Z,93.32
2018-11-13T03:07:44.065Z,93.79
2018-11-13T03:08:44.044Z,93.51
2018-11-13T03:09:44.044Z,93.41
2018-11-13T03:10:44.048Z,93.79
2018-11-13T03:11:44.051Z,93.6
2018-11-13T03:12:44.149Z,93.23
2018-11-13T03:13:44.238Z,93.51
2018-11-13T03:14:44.051Z,93.6
2018-11-13T03:15:44.050Z,93.41
2018-11-13T03:16:44.061Z,93.6
2018-11-13T03:17:44.106Z,93.32
2018-11-13T03:18:44.060Z,93.79
2018-11-13T03:19:44.061Z,93.51
2018-11-13T03:20:44.061Z,93.51
2018-11-13T03:21:44.061Z,93.32
2018-11-13T03:22:44.067Z,93.32
2018-11-13T03:23:44.063Z,93.41
2018-11-13T03:24:44.070Z,93.32
2018-11-13T03:25:44.067Z,93.23
2018-11-13T03:26:44.070Z,93.51
2018-11-13T03:27:44.074Z,93.13
2018-11-13T03:28:44.071Z,93.23
2018-11-13T03:29:44.075Z,93.51
2018-11-13T03:30:44.072Z,93.41
2018-11-13T03:31:44.082Z,93.37
2018-11-13T03:32:44.136Z,93.75
2018-11-13T03:33:44.078Z,93.23
2018-11-13T03:34:44.075Z,93.37
2018-11-13T03:35:44.088Z,93.55
2018-11-13T03:36:44.078Z,93.65
2018-11-13T03:37:44.097Z,93.55
2018-11-13T03:38:44.081Z,93.27
2018-11-13T03:39:43.830Z,93.08
2018-11-13T03:40:43.831Z,93.75
2018-11-13T03:41:44.078Z,93.37
2018-11-13T03:42:44.180Z,92.99
2018-11-13T03:43:44.106Z,93.37
2018-11-13T03:44:44.081Z,93.37
2018-11-13T03:45:43.843Z,92.61
2018-11-13T03:46:44.084Z,92.89
2018-11-13T03:47:44.137Z,92.89
2018-11-13T03:48:44.088Z,93.08
2018-11-13T03:49:44.096Z,93.08
2018-11-13T03:50:44.107Z,92.99
2018-11-13T03:51:44.101Z,92.41
2018-11-13T03:52:44.121Z,92.61
2018-11-13T03:53:43.839Z,92.41
2018-11-13T03:54:44.101Z,92.61
2018-11-13T03:55:44.095Z,92.8
2018-11-13T03:56:44.156Z,93.27
2018-11-13T03:57:44.103Z,92.7
2018-11-13T03:58:44.109Z,93.08
2018-11-13T03:59:44.109Z,92.51
2018-11-13T04:00:44.106Z,93.08
2018-11-13T04:01:44.113Z,92.89
2018-11-13T04:02:44.163Z,92.89
2018-11-13T04:03:44.116Z,92.89
2018-11-13T04:04:44.112Z,92.32
2018-11-13T04:05:43.857Z,92.7
2018-11-13T04:06:44.112Z,92.61
2018-11-13T04:07:44.111Z,92.7
2018-11-13T04:08:43.860Z,92.8
2018-11-13T04:09:44.119Z,92.89
2018-11-13T04:10:44.118Z,92.41
2018-11-13T04:11:44.116Z,92.8
2018-11-13T04:12:44.114Z,92.41
2018-11-13T04:13:44.161Z,91.94
2018-11-13T04:14:44.129Z,92.61
2018-11-13T04:15:44.121Z,92.61
2018-11-13T04:16:44.136Z,92.41
2018-11-13T04:17:44.177Z,92.51
2018-11-13T04:18:44.127Z,91.94
2018-11-13T04:19:44.133Z,92.32
2018-11-13T04:20:44.127Z,92.61
2018-11-13T04:21:44.128Z,92.22
2018-11-13T04:22:44.131Z,92.51
2018-11-13T04:23:44.332Z,92.7
2018-11-13T04:24:44.133Z,92.32
2018-11-13T04:25:44.147Z,91.94
2018-11-13T04:26:44.149Z,92.03
2018-11-13T04:27:44.141Z,91.85
2018-11-13T04:28:44.142Z,92.03
2018-11-13T04:29:44.140Z,92.51
2018-11-13T04:30:44.426Z,92.32
2018-11-13T04:31:44.139Z,92.13
2018-11-13T04:32:44.236Z,91.94
2018-11-13T04:33:44.137Z,91.85
2018-11-13T04:34:44.150Z,91.94
2018-11-13T04:35:43.888Z,92.27
2018-11-13T04:36:44.142Z,91.94
2018-11-13T04:37:44.140Z,91.8
2018-11-13T04:38:44.140Z,92.08
2018-11-13T04:39:44.141Z,92.32
2018-11-13T04:40:44.157Z,92.32
2018-11-13T04:41:44.151Z,92.08
2018-11-13T04:42:44.155Z,91.8
2018-11-13T04:43:44.148Z,91.99
2018-11-13T04:44:43.895Z,91.89
2018-11-13T04:45:44.153Z,91.66
2018-11-13T04:46:44.157Z,91.33
2018-11-13T04:47:44.201Z,92.08
2018-11-13T04:48:44.153Z,91.52
2018-11-13T04:49:44.162Z,91.61
2018-11-13T04:50:44.159Z,91.42
2018-11-13T04:51:44.433Z,91.52
2018-11-13T04:52:43.904Z,92.08
2018-11-13T04:53:44.164Z,92.08
2018-11-13T04:54:44.160Z,91.89
2018-11-13T04:55:44.163Z,92.08
2018-11-13T04:56:44.161Z,92.27
2018-11-13T04:57:44.161Z,91.71
2018-11-13T04:58:44.177Z,91.89
2018-11-13T04:59:44.158Z,91.8
2018-11-13T05:00:44.160Z,91.71
2018-11-13T05:01:44.160Z,91.71
2018-11-13T05:02:44.407Z,91.13
2018-11-13T05:03:44.158Z,91.8
2018-11-13T05:04:44.161Z,91.61
2018-11-13T05:05:44.169Z,91.8
2018-11-13T05:06:44.160Z,91.42
2018-11-13T05:07:44.163Z,91.42
2018-11-13T05:08:44.161Z,91.23
2018-11-13T05:09:44.172Z,91.13
2018-11-13T05:10:44.171Z,91.23
2018-11-13T05:11:44.297Z,91.61
2018-11-13T05:12:44.171Z,91.13
2018-11-13T05:13:44.167Z,91.52
2018-11-13T05:14:44.179Z,92.18
2018-11-13T05:15:44.171Z,91.99
2018-11-13T05:16:44.171Z,92.08
2018-11-13T05:17:44.235Z,91.89
2018-11-13T05:18:44.173Z,92.27
2018-11-13T05:19:44.175Z,92.18
2018-11-13T05:20:44.174Z,92.66
2018-11-13T05:21:44.185Z,93.04
2018-11-13T05:22:44.184Z,93.23
2018-11-13T05:23:44.177Z,92.56
2018-11-13T05:24:44.174Z,92.56
2018-11-13T05:25:44.174Z,93.23
2018-11-13T05:26:44.184Z,92.37
2018-11-13T05:27:44.181Z,93.23
2018-11-13T05:28:44.178Z,92.37
2018-11-13T05:29:44.177Z,93.04
2018-11-13T05:30:43.927Z,92.18
2018-11-13T05:31:44.204Z,92.37
2018-11-13T05:32:44.232Z,93.23
2018-11-13T05:33:44.181Z,92.56
2018-11-13T05:34:44.183Z,92.85
2018-11-13T05:35:44.188Z,93.04
2018-11-13T05:36:44.183Z,92.75
2018-11-13T05:37:44.239Z,93.23
2018-11-13T05:38:44.191Z,93.32
2018-11-13T05:39:44.185Z,93.51
2018-11-13T05:40:43.933Z,93.79
2018-11-13T05:41:44.398Z,93.51
2018-11-13T05:42:44.341Z,93.7
2018-11-13T05:43:44.187Z,93.41
2018-11-13T05:44:44.193Z,93.32
2018-11-13T05:45:44.191Z,93.65
2018-11-13T05:46:44.191Z,93.51
2018-11-13T05:47:44.193Z,93.7
2018-11-13T05:48:44.196Z,93.41
2018-11-13T05:49:43.941Z,93.46
2018-11-13T05:50:44.190Z,94.13
2018-11-13T05:51:44.194Z,94.13
2018-11-13T05:52:44.197Z,94.03
2018-11-13T05:53:44.194Z,94.03
2018-11-13T05:54:44.197Z,93.84
2018-11-13T05:55:43.962Z,93.94
2018-11-13T05:56:43.945Z,93.84
2018-11-13T05:57:44.244Z,93.94
2018-11-13T05:58:44.195Z,94.03
2018-11-13T05:59:44.310Z,94.08
2018-11-13T06:00:44.198Z,93.75
2018-11-13T06:01:44.194Z,93.56
2018-11-13T06:02:44.194Z,93.84
2018-11-13T06:03:44.197Z,93.84
2018-11-13T06:04:44.196Z,93.75
2018-11-13T06:05:44.198Z,93.75
2018-11-13T06:06:43.946Z,93.94
2018-11-13T06:07:44.200Z,94.13
2018-11-13T06:08:44.393Z,93.84
2018-11-13T06:09:44.198Z,93.84
2018-11-13T06:10:44.202Z,94.7
2018-11-13T06:11:44.196Z,94.79
2018-11-13T06:12:43.995Z,94.6
2018-11-13T06:13:44.197Z,94.51
2018-11-13T06:14:44.199Z,95.17
2018-11-13T06:15:44.201Z,94.79
2018-11-13T06:16:44.200Z,95.65
2018-11-13T06:17:44.211Z,95.55
2018-11-13T06:18:44.201Z,95.17
2018-11-13T06:19:44.200Z,95.17
2018-11-13T06:20:44.205Z,95.55
2018-11-13T06:21:43.948Z,95.65
2018-11-13T06:22:44.340Z,96.12
2018-11-13T06:23:43.956Z,96.12
2018-11-13T06:24:43.953Z,96.22
2018-11-13T06:25:44.227Z,96.22
2018-11-13T06:26:44.202Z,95.75
2018-11-13T06:27:44.258Z,95.51
2018-11-13T06:28:44.203Z,95.22
2018-11-13T06:29:44.400Z,95.32
2018-11-13T06:30:43.951Z,95.22
2018-11-13T06:31:43.951Z,95.22
2018-11-13T06:32:44.209Z,95.6
2018-11-13T06:33:43.953Z,95.51
2018-11-13T06:34:44.206Z,94.65
2018-11-13T06:35:44.212Z,95.03
2018-11-13T06:36:44.208Z,94.56
2018-11-13T06:37:44.210Z,94.84
2018-11-13T06:38:44.313Z,94.84
2018-11-13T06:39:43.955Z,94.93
2018-11-13T06:40:44.206Z,94.27
2018-11-13T06:41:44.216Z,94.46
2018-11-13T06:42:44.263Z,94.18
2018-11-13T06:43:43.956Z,94.56
2018-11-13T06:44:43.957Z,94.65
2018-11-13T06:45:44.213Z,93.99
2018-11-13T06:46:44.218Z,94.08
2018-11-13T06:47:44.215Z,94.27
2018-11-13T06:48:44.213Z,95.12
2018-11-13T06:49:44.511Z,94.74
2018-11-13T06:50:44.233Z,94.93
2018-11-13T06:51:44.220Z,94.93
2018-11-13T06:52:44.216Z,94.7
2018-11-13T06:53:44.220Z,94.89
2018-11-13T06:54:44.228Z,94.79
2018-11-13T06:55:44.219Z,94.51
2018-11-13T06:56:43.963Z,94.32
2018-11-13T06:57:44.015Z,94.42
2018-11-13T06:58:43.968Z,94.03
2018-11-13T06:59:43.966Z,94.13
2018-11-13T07:00:44.220Z,93.84
2018-11-13T07:01:44.223Z,93.94
2018-11-13T07:02:43.967Z,94.13
2018-11-13T07:03:44.230Z,93.55
2018-11-13T07:04:43.981Z,94.32
2018-11-13T07:05:43.974Z,94.22
2018-11-13T07:06:44.226Z,94.13
2018-11-13T07:07:44.229Z,94.32
2018-11-13T07:08:44.276Z,94.7
2018-11-13T07:09:43.977Z,94.42
2018-11-13T07:10:44.326Z,94.89
2018-11-13T07:11:44.229Z,94.42
2018-11-13T07:12:44.283Z,94.56
2018-11-13T07:13:44.232Z,95.03
2018-11-13T07:14:44.240Z,94.65
2018-11-13T07:15:44.235Z,95.08
2018-11-13T07:16:44.238Z,94.65
2018-11-13T07:17:43.983Z,94.84
2018-11-13T07:18:44.246Z,95.12
2018-11-13T07:19:44.241Z,95.22
2018-11-13T07:20:44.247Z,94.56
2018-11-13T07:21:44.243Z,94.18
2018-11-13T07:22:44.347Z,94.18
2018-11-13T07:23:44.259Z,94.27
2018-11-13T07:24:44.247Z,94.18
2018-11-13T07:25:44.248Z,94.27
2018-11-13T07:26:44.256Z,94.18
2018-11-13T07:27:44.589Z,94.22
2018-11-13T07:28:44.038Z,94.13
2018-11-13T07:29:43.997Z,94.03
2018-11-13T07:30:44.263Z,93.55
2018-11-13T07:31:44.254Z,93.27
2018-11-13T07:32:44.254Z,93.55
2018-11-13T07:33:44.003Z,93.37
2018-11-13T07:34:44.263Z,92.99
2018-11-13T07:35:44.261Z,92.99
2018-11-13T07:36:44.263Z,92.89
2018-11-13T07:37:44.261Z,92.41
2018-11-13T07:38:44.271Z,92.13
2018-11-13T07:39:44.271Z,91.84
2018-11-13T07:40:44.272Z,91.6
2018-11-13T07:41:44.268Z,91.79
2018-11-13T07:42:44.320Z,91.7
2018-11-13T07:43:44.270Z,90.94
2018-11-13T07:44:44.272Z,91.22
2018-11-13T07:45:44.275Z,90.65
2018-11-13T07:46:44.547Z,90.84
2018-11-13T07:47:44.880Z,90.08
2018-11-13T07:48:44.292Z,89.98
2018-11-13T07:49:44.291Z,90.17
2018-11-13T07:50:44.294Z,89.89
2018-11-13T07:51:44.295Z,90.08
2018-11-13T07:52:44.043Z,89.89
2018-11-13T07:53:44.384Z,90.27
2018-11-13T07:54:44.307Z,90.12
2018-11-13T07:55:44.305Z,89.94
2018-11-13T07:56:44.054Z,89.17
2018-11-13T07:57:44.361Z,89.17
2018-11-13T07:58:44.316Z,89.46
2018-11-13T07:59:44.314Z,89.36
2018-11-13T08:00:44.318Z,88.79
2018-11-13T08:01:44.321Z,88.79
2018-11-13T08:02:44.325Z,88.7
2018-11-13T08:03:44.476Z,88.22
2018-11-13T08:04:44.334Z,88.6
2018-11-13T08:05:44.115Z,88.36
2018-11-13T08:06:44.485Z,88.07
2018-11-13T08:07:44.438Z,87.6
2018-11-13T08:08:44.338Z,87.5
2018-11-13T08:09:44.342Z,87.31
2018-11-13T08:10:44.348Z,87.21
2018-11-13T08:11:44.349Z,86.74
2018-11-13T08:12:44.514Z,86.36
2018-11-13T08:13:44.402Z,86.59
2018-11-13T08:14:44.364Z,86.59
2018-11-13T08:15:44.479Z,85.93
2018-11-13T08:16:44.378Z,85.54
2018-11-13T08:17:44.366Z,85.73
2018-11-13T08:18:44.164Z,84.88
2018-11-13T08:19:44.371Z,84.49
2018-11-13T08:20:44.383Z,84.92
2018-11-13T08:21:44.130Z,84.16
2018-11-13T08:22:44.478Z,84.16
2018-11-13T08:23:44.397Z,83.39
2018-11-13T08:24:44.388Z,83.77
2018-11-13T08:25:44.503Z,82.82
2018-11-13T08:26:44.400Z,82.91
2018-11-13T08:27:44.725Z,82.48
2018-11-13T08:28:44.604Z,82.09
2018-11-13T08:29:44.157Z,82.57
2018-11-13T08:30:44.404Z,81.62
2018-11-13T08:31:44.406Z,82.04
2018-11-13T08:32:44.510Z,81.47
2018-11-13T08:33:44.416Z,80.9
2018-11-13T08:34:44.514Z,80.32
2018-11-13T08:35:44.582Z,80.32
2018-11-13T08:36:44.442Z,79.85
2018-11-13T08:37:44.440Z,79.41
2018-11-13T08:38:44.451Z,79.6
2018-11-13T08:39:44.195Z,79.41
2018-11-13T08:40:44.460Z,78.64
2018-11-13T08:41:44.463Z,79.02
2018-11-13T08:42:44.467Z,78.83
2018-11-13T08:43:44.224Z,79.02
2018-11-13T08:44:44.469Z,78.55
2018-11-13T08:45:44.473Z,79.12
2018-11-13T08:46:44.483Z,78.83
2018-11-13T08:47:44.535Z,78.64
2018-11-13T08:48:44.488Z,77.78
2018-11-13T08:49:44.241Z,77.5
2018-11-13T08:50:44.772Z,77.59
2018-11-13T08:51:44.504Z,77.72
2018-11-13T08:52:44.510Z,77.72
2018-11-13T08:53:44.513Z,77.63
2018-11-13T08:54:44.522Z,77.34
2018-11-13T08:55:44.524Z,76.39
2018-11-13T08:56:44.273Z,76.39
2018-11-13T08:57:44.535Z,76.23
2018-11-13T08:58:44.591Z,76.33
2018-11-13T08:59:44.900Z,76.04
2018-11-13T09:00:44.598Z,76.14
2018-11-13T09:01:44.567Z,76.04
2018-11-13T09:02:44.631Z,76.33
2018-11-13T09:03:44.571Z,76
2018-11-13T09:04:44.571Z,76.14
2018-11-13T09:05:44.576Z,76.71
2018-11-13T09:06:44.586Z,76.04
2018-11-13T09:07:44.587Z,76.33
2018-11-13T09:08:44.607Z,75.76
2018-11-13T09:09:44.600Z,75.95
2018-11-13T09:10:44.609Z,75.37
2018-11-13T09:11:44.849Z,75.37
2018-11-13T09:12:44.361Z,75.66
2018-11-13T09:13:44.626Z,75.66
2018-11-13T09:14:44.625Z,75.27
2018-11-13T09:15:44.632Z,75.22
2018-11-13T09:16:44.635Z,75.31
2018-11-13T09:17:44.441Z,75.02
2018-11-13T09:18:44.757Z,75.02
2018-11-13T09:19:44.984Z,74.45
2018-11-13T09:20:44.664Z,74.55
2018-11-13T09:21:44.798Z,74.45
2018-11-13T09:22:44.771Z,74.36
2018-11-13T09:23:44.424Z,74.45
2018-11-13T09:24:44.688Z,74.36
2018-11-13T09:25:44.689Z,73.79
2018-11-13T09:26:44.695Z,74.01
2018-11-13T09:27:44.703Z,73.69
2018-11-13T09:28:44.710Z,73.69
2018-11-13T09:29:44.798Z,73.59
2018-11-13T09:30:45.384Z,74.01
2018-11-13T09:31:44.834Z,73.24
2018-11-13T09:32:44.792Z,73.34
2018-11-13T09:33:44.835Z,72.77
2018-11-13T09:34:44.746Z,72.23
2018-11-13T09:35:44.499Z,72.8
2018-11-13T09:36:44.757Z,71.56
2018-11-13T09:37:45.024Z,70.98
2018-11-13T09:38:44.777Z,69.77
2018-11-13T09:39:44.531Z,68.91
2018-11-13T09:40:44.528Z,69.83
2018-11-13T09:41:44.793Z,69.93
2018-11-13T09:42:44.810Z,69.39
2018-11-13T09:43:44.555Z,69.58
2018-11-13T09:44:44.948Z,69.77
2018-11-13T09:45:44.610Z,69.77
2018-11-13T09:46:44.571Z,69.58
2018-11-13T09:47:45.100Z,70.12
2018-11-13T09:48:44.907Z,70.21
2018-11-13T09:49:44.594Z,69.93
2018-11-13T09:50:44.681Z,70.31
2018-11-13T09:51:44.922Z,69.83
2018-11-13T09:52:44.616Z,70.7
2018-11-13T09:53:44.771Z,70.79
2018-11-13T09:54:44.880Z,70.41
2018-11-13T09:55:44.888Z,70.7
2018-11-13T09:56:44.918Z,70.31
2018-11-13T09:57:44.902Z,70.06
2018-11-13T09:58:45.039Z,70.06
2018-11-13T09:59:44.925Z,70.73
2018-11-13T10:00:45.440Z,70.35
2018-11-13T10:01:46.373Z,70.19
2018-11-13T10:02:46.872Z,70.48
2018-11-13T10:03:46.604Z,70
2018-11-13T10:04:46.952Z,70.09
2018-11-13T10:05:45.390Z,70.64
2018-11-13T10:06:45.023Z,71.31
2018-11-13T10:07:44.985Z,71.88
2018-11-13T10:08:44.726Z,72.64
2018-11-13T10:09:44.987Z,72.45
2018-11-13T10:10:45.154Z,73.19
2018-11-13T10:11:44.749Z,73.57
2018-11-13T10:12:45.014Z,74.05
2018-11-13T10:13:45.029Z,74.05
2018-11-13T10:14:45.025Z,74.52
2018-11-13T10:15:45.056Z,74.15
2018-11-13T10:16:45.043Z,73.86
2018-11-13T10:17:45.319Z,74.08
2018-11-13T10:18:45.067Z,74.08
2018-11-13T10:19:45.080Z,74.15
2018-11-13T10:20:45.079Z,74.52
2018-11-13T10:21:44.832Z,75.01
2018-11-13T10:22:45.144Z,75.2
2018-11-13T10:23:45.110Z,75.68
2018-11-13T10:24:45.109Z,75.45
2018-11-13T10:25:45.117Z,76.21
2018-11-13T10:26:45.204Z,76.5
2018-11-13T10:27:45.313Z,76.98
2018-11-13T10:28:45.142Z,76.98
2018-11-13T10:29:45.161Z,76.6
2018-11-13T10:30:44.906Z,76.69
2018-11-13T10:31:45.164Z,76.79
2018-11-13T10:32:45.173Z,76.5
2018-11-13T10:33:45.198Z,76.4
2018-11-13T10:34:45.187Z,76.4
2018-11-13T10:35:44.945Z,76.21
2018-11-13T10:36:45.208Z,75.45
2018-11-13T10:37:45.263Z,75.2
2018-11-13T10:38:44.964Z,75.01
2018-11-13T10:39:44.983Z,74.43
2018-11-13T10:40:45.620Z,74.62
2018-11-13T10:41:44.986Z,74.15
2018-11-13T10:42:45.247Z,74.18
2018-11-13T10:43:45.257Z,73.9
2018-11-13T10:44:45.266Z,73.41
2018-11-13T10:45:45.269Z,73.13
2018-11-13T10:46:45.031Z,73.8
2018-11-13T10:47:45.291Z,74.18
2018-11-13T10:48:45.353Z,73.7
2018-11-13T10:49:45.303Z,73.13
2018-11-13T10:50:45.311Z,72.94
2018-11-13T10:51:45.317Z,73.57
2018-11-13T10:52:45.192Z,73.66
2018-11-13T10:53:45.366Z,73.57
2018-11-13T10:54:45.341Z,73.66
2018-11-13T10:55:45.358Z,73.38
2018-11-13T10:56:45.352Z,73.57
2018-11-13T10:57:45.362Z,74.15
2018-11-13T10:58:45.381Z,73.57
2018-11-13T10:59:45.376Z,73.95
2018-11-13T11:00:45.383Z,74.05
2018-11-13T11:01:45.387Z,73.95
2018-11-13T11:02:45.542Z,73.95
2018-11-13T11:03:45.413Z,74.62
2018-11-13T11:04:45.159Z,74.68
2018-11-13T11:05:45.426Z,74.4
2018-11-13T11:06:45.171Z,75.35
2018-11-13T11:07:45.228Z,74.87
2018-11-13T11:08:45.449Z,75.35
2018-11-13T11:09:45.453Z,75.16
2018-11-13T11:10:45.458Z,75.12
2018-11-13T11:11:45.461Z,76.18
2018-11-13T11:12:45.540Z,76.46
2018-11-13T11:13:45.895Z,75.98
2018-11-13T11:14:45.476Z,76.46
2018-11-13T11:15:45.230Z,76.94
2018-11-13T11:16:45.233Z,77.04
2018-11-13T11:17:45.494Z,77.57
2018-11-13T11:18:45.345Z,78.14
2018-11-13T11:19:45.525Z,77.76
2018-11-13T11:20:45.512Z,78.05
2018-11-13T11:21:45.518Z,78.05
2018-11-13T11:22:45.729Z,78.2
2018-11-13T11:23:45.872Z,78.39
2018-11-13T11:24:45.532Z,78.49
2018-11-13T11:25:45.537Z,78.58
2018-11-13T11:26:45.548Z,78.58
2018-11-13T11:27:45.678Z,78.2
2018-11-13T11:28:45.573Z,78.58
2018-11-13T11:29:45.561Z,78.39
2018-11-13T11:30:45.589Z,78.78
2018-11-13T11:31:45.576Z,79.06
2018-11-13T11:32:45.582Z,79.69
2018-11-13T11:33:45.584Z,79.88
2018-11-13T11:34:45.593Z,79.79
2018-11-13T11:35:45.604Z,79.88
2018-11-13T11:36:45.346Z,80.17
2018-11-13T11:37:45.401Z,80.55
2018-11-13T11:38:45.825Z,80.36
2018-11-13T11:39:45.752Z,80.93
2018-11-13T11:40:45.363Z,80.55
2018-11-13T11:41:45.371Z,80.93
2018-11-13T11:42:45.632Z,80.65
2018-11-13T11:43:45.637Z,81.22
2018-11-13T11:44:45.639Z,80.93
2018-11-13T11:45:45.896Z,81.03
2018-11-13T11:46:45.416Z,80.55
2018-11-13T11:47:45.401Z,80.55
2018-11-13T11:48:45.665Z,80.93
2018-11-13T11:49:45.409Z,80.84
2018-11-13T11:50:45.668Z,81.03
2018-11-13T11:51:45.677Z,81.13
2018-11-13T11:52:45.728Z,80.93
2018-11-13T11:53:45.865Z,81.6
2018-11-13T11:54:45.794Z,81.85
2018-11-13T11:55:45.710Z,81.76
2018-11-13T11:56:45.697Z,81.76
2018-11-13T11:57:45.713Z,81.66
2018-11-13T11:58:45.450Z,81.85
2018-11-13T11:59:45.707Z,81.76
2018-11-13T12:00:45.998Z,82.14
2018-11-13T12:01:45.724Z,82.14
2018-11-13T12:02:45.724Z,82.42
2018-11-13T12:03:45.725Z,81.6
2018-11-13T12:04:45.489Z,81.79
2018-11-13T12:05:45.730Z,81.6
2018-11-13T12:06:45.738Z,81.89
2018-11-13T12:07:45.790Z,81.79
2018-11-13T12:08:45.494Z,81.99
2018-11-13T12:09:45.758Z,82.14
2018-11-13T12:10:45.798Z,82.52
2018-11-13T12:11:45.759Z,82.42
2018-11-13T12:12:45.512Z,82.32
2018-11-13T12:13:45.786Z,82.81
2018-11-13T12:14:45.775Z,82.42
2018-11-13T12:15:45.787Z,82.71
2018-11-13T12:16:45.784Z,82.71
2018-11-13T12:17:45.791Z,83.28
2018-11-13T12:18:45.887Z,83.28
2018-11-13T12:19:45.797Z,83.38
2018-11-13T12:20:45.802Z,83.09
2018-11-13T12:21:45.807Z,82.71
2018-11-13T12:22:45.610Z,82.71
2018-11-13T12:23:45.820Z,82.52
2018-11-13T12:24:45.823Z,83
2018-11-13T12:25:45.906Z,82.71
2018-11-13T12:26:45.860Z,82.81
2018-11-13T12:27:45.834Z,83
2018-11-13T12:28:45.846Z,83
2018-11-13T12:29:45.860Z,82.71
2018-11-13T12:30:45.858Z,82.61
2018-11-13T12:31:45.856Z,82.9
2018-11-13T12:32:45.666Z,83.18
2018-11-13T12:33:45.862Z,82.9
2018-11-13T12:34:46.177Z,83
2018-11-13T12:35:45.875Z,82.9
2018-11-13T12:36:45.620Z,82.9
2018-11-13T12:37:45.932Z,82.81
2018-11-13T12:38:45.891Z,82.71
2018-11-13T12:39:45.887Z,82.71
2018-11-13T12:40:46.181Z,82.81
2018-11-13T12:41:45.892Z,82.9
2018-11-13T12:42:46.516Z,82.9
2018-11-13T12:43:45.653Z,82.71
2018-11-13T12:44:45.926Z,83
2018-11-13T12:45:45.916Z,82.52
2018-11-13T12:46:45.917Z,82.42
2018-11-13T12:47:45.667Z,82.52
2018-11-13T12:48:46.068Z,82.42
2018-11-13T12:49:45.937Z,82.81
2018-11-13T12:50:45.936Z,82.61
2018-11-13T12:51:45.686Z,82.61
2018-11-13T12:52:46.040Z,82.04
2018-11-13T12:53:45.947Z,81.85
2018-11-13T12:54:45.953Z,81.66
2018-11-13T12:55:45.824Z,81.66
2018-11-13T12:56:45.971Z,81.6